PWSweather.com
Personal Weather Stations
Station Observations
DW1039
Liberty & Fairfield Townships, Hamilton, OH 45011

Liberty & Fairfield TownshipsHamilton, OH 45011

Lat: 39.3933, Lon: -84.477

Elevation: 780

Station Type: Davis Vantage Pro2 (Daytime Fan Aspirated)

http://www.lfweathercenter.com/

High Low Average
Temperature 55.3°F12.9°C 38.4°F3.6°C 43.7°F6.5°C
Dew Point 47.5°F8.6°C 22.5°F-5.3°C 36.8°F2.7°C
Winds 33.0 mph 53.1 kmh Calm Calm 10.0 mph SW16.1 kmh SW
Wind Gusts 40.0 mph64.4 kmh 4.0 mph6.4 kmh 18.0 mph29.0 kmh
Humidity 90% 50% 77%
Pressure 30.10 in1019.3 mb 29.75 in1007.5 mb -
Precipitation 0.00 in0.0 mm - -
Hour Temp Dew Point Humidity Winds Wind Gusts Pressure Precip Precip Rate Daily Precip Total
12:00 AM 39.1°F3.9°C 36.1°F2.3°C 89% 3.0 mph SE4.8 kmh SE 7.0 mph11.3 kmh 30.01 in1016.3 mb 0.00 in0.0 mm 0.00 in/hr0.0 mm/hr 0.00 in0.0 mm
12:10 AM 39.2°F4.0°C 36.2°F2.3°C 89% 4.0 mph SSE6.4 kmh SSE 7.0 mph11.3 kmh 30.01 in1016.3 mb 0.00 in0.0 mm 0.00 in/hr0.0 mm/hr 0.00 in0.0 mm
12:20 AM 39.1°F3.9°C 36.1°F2.3°C 89% 3.0 mph SSE4.8 kmh SSE 11.0 mph17.7 kmh 30.00 in1015.9 mb 0.00 in0.0 mm 0.00 in/hr0.0 mm/hr 0.00 in0.0 mm
12:30 AM 38.8°F3.8°C 36.1°F2.3°C 90% 4.0 mph SSE6.4 kmh SSE 7.0 mph11.3 kmh 30.00 in1015.9 mb 0.00 in0.0 mm 0.00 in/hr0.0 mm/hr 0.00 in0.0 mm
12:40 AM 38.7°F3.7°C 35.7°F2.1°C 89% 3.0 mph SSE4.8 kmh SSE 10.0 mph16.1 kmh 29.99 in1015.6 mb 0.00 in0.0 mm 0.00 in/hr0.0 mm/hr 0.00 in0.0 mm
12:50 AM 38.4°F3.6°C 35.7°F2.1°C 90% 4.0 mph SSE6.4 kmh SSE 9.0 mph14.5 kmh 29.97 in1014.9 mb 0.00 in0.0 mm 0.00 in/hr0.0 mm/hr 0.00 in0.0 mm
01:00 AM 38.4°F3.6°C 35.7°F2.1°C 90% 4.0 mph S6.4 kmh S 9.0 mph14.5 kmh 29.96 in1014.6 mb 0.00 in0.0 mm 0.00 in/hr0.0 mm/hr 0.00 in0.0 mm
01:10 AM 38.4°F3.6°C 35.7°F2.1°C 90% 2.0 mph S3.2 kmh S 8.0 mph12.9 kmh 29.95 in1014.2 mb 0.00 in0.0 mm 0.00 in/hr0.0 mm/hr 0.00 in0.0 mm
01:20 AM 38.9°F3.8°C 36.2°F2.3°C 90% 9.0 mph SE14.5 kmh SE 11.0 mph17.7 kmh 29.94 in1013.9 mb 0.00 in0.0 mm 0.00 in/hr0.0 mm/hr 0.00 in0.0 mm
01:30 AM 39.3°F4.1°C 36.1°F2.3°C 88% 6.0 mph SE9.7 kmh SE 9.0 mph14.5 kmh 29.94 in1013.9 mb 0.00 in0.0 mm 0.00 in/hr0.0 mm/hr 0.00 in0.0 mm
01:40 AM 39.7°F4.3°C 36.4°F2.4°C 88% 2.0 mph SSE3.2 kmh SSE 14.0 mph22.5 kmh 29.93 in1013.5 mb 0.00 in0.0 mm 0.00 in/hr0.0 mm/hr 0.00 in0.0 mm
02:00 AM 39.8°F4.3°C 36.5°F2.5°C 88% 9.0 mph SSE14.5 kmh SSE 18.0 mph29.0 kmh 29.92 in1013.2 mb 0.00 in0.0 mm 0.00 in/hr0.0 mm/hr 0.00 in0.0 mm
02:10 AM 39.9°F4.4°C 36.4°F2.4°C 87% 3.0 mph SSW4.8 kmh SSW 11.0 mph17.7 kmh 29.92 in1013.2 mb 0.00 in0.0 mm 0.00 in/hr0.0 mm/hr 0.00 in0.0 mm
02:20 AM 40.6°F4.8°C 36.8°F2.7°C 86% 7.0 mph SE11.3 kmh SE 11.0 mph17.7 kmh 29.91 in1012.9 mb 0.00 in0.0 mm 0.00 in/hr0.0 mm/hr 0.00 in0.0 mm
02:30 AM 40.5°F4.7°C 36.7°F2.6°C 86% 9.0 mph S14.5 kmh S 10.0 mph16.1 kmh 29.92 in1013.2 mb 0.00 in0.0 mm 0.00 in/hr0.0 mm/hr 0.00 in0.0 mm
02:40 AM 40.6°F4.8°C 37.0°F2.8°C 87% 7.0 mph S11.3 kmh S 10.0 mph16.1 kmh 29.91 in1012.9 mb 0.00 in0.0 mm 0.00 in/hr0.0 mm/hr 0.00 in0.0 mm
02:50 AM 40.7°F4.8°C 37.1°F2.8°C 87% 1.0 mph S1.6 kmh S 10.0 mph16.1 kmh 29.90 in1012.5 mb 0.00 in0.0 mm 0.00 in/hr0.0 mm/hr 0.00 in0.0 mm
03:00 AM 41.4°F5.2°C 37.2°F2.9°C 85% 3.0 mph SE4.8 kmh SE 9.0 mph14.5 kmh 29.89 in1012.2 mb 0.00 in0.0 mm 0.00 in/hr0.0 mm/hr 0.00 in0.0 mm
03:10 AM 41.8°F5.4°C 37.3°F2.9°C 84% 4.0 mph SSE6.4 kmh SSE 13.0 mph20.9 kmh 29.89 in1012.2 mb 0.00 in0.0 mm 0.00 in/hr0.0 mm/hr 0.00 in0.0 mm
03:20 AM 41.8°F5.4°C 37.3°F2.9°C 84% 2.0 mph S3.2 kmh S 11.0 mph17.7 kmh 29.88 in1011.9 mb 0.00 in0.0 mm 0.00 in/hr0.0 mm/hr 0.00 in0.0 mm
03:30 AM 41.9°F5.5°C 37.4°F3.0°C 84% 4.0 mph SSW6.4 kmh SSW 12.0 mph19.3 kmh 29.87 in1011.5 mb 0.00 in0.0 mm 0.00 in/hr0.0 mm/hr 0.00 in0.0 mm
03:40 AM 42.2°F5.7°C 37.7°F3.2°C 84% Calm Calm 10.0 mph16.1 kmh 29.86 in1011.2 mb 0.00 in0.0 mm 0.00 in/hr0.0 mm/hr 0.00 in0.0 mm
03:50 AM 42.5°F5.8°C 37.7°F3.2°C 83% 1.0 mph SE1.6 kmh SE 9.0 mph14.5 kmh 29.86 in1011.2 mb 0.00 in0.0 mm 0.00 in/hr0.0 mm/hr 0.00 in0.0 mm
04:00 AM 43.1°F6.2°C 38.0°F3.3°C 82% 9.0 mph SSW14.5 kmh SSW 12.0 mph19.3 kmh 29.86 in1011.2 mb 0.00 in0.0 mm 0.00 in/hr0.0 mm/hr 0.00 in0.0 mm
04:10 AM 43.7°F6.5°C 38.0°F3.3°C 80% 7.0 mph S11.3 kmh S 16.0 mph25.7 kmh 29.85 in1010.8 mb 0.00 in0.0 mm 0.00 in/hr0.0 mm/hr 0.00 in0.0 mm
04:20 AM 43.7°F6.5°C 38.3°F3.5°C 81% 5.0 mph S8.0 kmh S 12.0 mph19.3 kmh 29.85 in1010.8 mb 0.00 in0.0 mm 0.00 in/hr0.0 mm/hr 0.00 in0.0 mm
04:30 AM 44.2°F6.8°C 38.1°F3.4°C 79% 3.0 mph SSE4.8 kmh SSE 10.0 mph16.1 kmh 29.84 in1010.5 mb 0.00 in0.0 mm 0.00 in/hr0.0 mm/hr 0.00 in0.0 mm
04:40 AM 44.4°F6.9°C 38.0°F3.3°C 78% 8.0 mph SSE12.9 kmh SSE 10.0 mph16.1 kmh 29.83 in1010.2 mb 0.00 in0.0 mm 0.00 in/hr0.0 mm/hr 0.00 in0.0 mm
04:50 AM 44.5°F6.9°C 38.1°F3.4°C 78% 6.0 mph SSE9.7 kmh SSE 10.0 mph16.1 kmh 29.83 in1010.2 mb 0.00 in0.0 mm 0.00 in/hr0.0 mm/hr 0.00 in0.0 mm
05:00 AM 44.7°F7.1°C 38.3°F3.5°C 78% 2.0 mph SE3.2 kmh SE 12.0 mph19.3 kmh 29.82 in1009.8 mb 0.00 in0.0 mm 0.00 in/hr0.0 mm/hr 0.00 in0.0 mm
05:10 AM 44.5°F6.9°C 38.1°F3.4°C 78% 5.0 mph SE8.0 kmh SE 10.0 mph16.1 kmh 29.81 in1009.5 mb 0.00 in0.0 mm 0.00 in/hr0.0 mm/hr 0.00 in0.0 mm
05:21 AM 44.2°F6.8°C 37.8°F3.2°C 78% 4.0 mph SE6.4 kmh SE 6.0 mph9.7 kmh 29.80 in1009.1 mb 0.00 in0.0 mm 0.00 in/hr0.0 mm/hr 0.00 in0.0 mm
05:31 AM 44.5°F6.9°C 38.1°F3.4°C 78% 8.0 mph SSE12.9 kmh SSE 10.0 mph16.1 kmh 29.80 in1009.1 mb 0.00 in0.0 mm 0.00 in/hr0.0 mm/hr 0.00 in0.0 mm
05:40 AM 44.8°F7.1°C 38.0°F3.3°C 77% 2.0 mph SE3.2 kmh SE 11.0 mph17.7 kmh 29.80 in1009.1 mb 0.00 in0.0 mm 0.00 in/hr0.0 mm/hr 0.00 in0.0 mm
05:51 AM 44.8°F7.1°C 38.0°F3.3°C 77% 5.0 mph S8.0 kmh S 7.0 mph11.3 kmh 29.80 in1009.1 mb 0.00 in0.0 mm 0.00 in/hr0.0 mm/hr 0.00 in0.0 mm
06:01 AM 45.1°F7.3°C 38.3°F3.5°C 77% 2.0 mph S3.2 kmh S 7.0 mph11.3 kmh 29.79 in1008.8 mb 0.00 in0.0 mm 0.00 in/hr0.0 mm/hr 0.00 in0.0 mm
06:10 AM 45.4°F7.4°C 38.3°F3.5°C 76% 3.0 mph SE4.8 kmh SE 10.0 mph16.1 kmh 29.79 in1008.8 mb 0.00 in0.0 mm 0.00 in/hr0.0 mm/hr 0.00 in0.0 mm
06:20 AM 45.6°F7.6°C 38.5°F3.6°C 76% 5.0 mph S8.0 kmh S 9.0 mph14.5 kmh 29.78 in1008.5 mb 0.00 in0.0 mm 0.00 in/hr0.0 mm/hr 0.00 in0.0 mm
06:30 AM 46.0°F7.8°C 38.9°F3.8°C 76% Calm Calm 10.0 mph16.1 kmh 29.78 in1008.5 mb 0.00 in0.0 mm 0.00 in/hr0.0 mm/hr 0.00 in0.0 mm
06:40 AM 45.8°F7.7°C 38.7°F3.7°C 76% 1.0 mph SE1.6 kmh SE 9.0 mph14.5 kmh 29.77 in1008.1 mb 0.00 in0.0 mm 0.00 in/hr0.0 mm/hr 0.00 in0.0 mm
06:50 AM 45.5°F7.5°C 38.4°F3.6°C 76% 5.0 mph SE8.0 kmh SE 9.0 mph14.5 kmh 29.76 in1007.8 mb 0.00 in0.0 mm 0.00 in/hr0.0 mm/hr 0.00 in0.0 mm
07:00 AM 45.3°F7.4°C 38.5°F3.6°C 77% 5.0 mph S8.0 kmh S 9.0 mph14.5 kmh 29.76 in1007.8 mb 0.00 in0.0 mm 0.00 in/hr0.0 mm/hr 0.00 in0.0 mm
07:10 AM 45.4°F7.4°C 38.6°F3.7°C 77% 4.0 mph SSW6.4 kmh SSW 9.0 mph14.5 kmh 29.77 in1008.1 mb 0.00 in0.0 mm 0.00 in/hr0.0 mm/hr 0.00 in0.0 mm
07:20 AM 45.5°F7.5°C 38.7°F3.7°C 77% Calm Calm 9.0 mph14.5 kmh 29.76 in1007.8 mb 0.00 in0.0 mm 0.00 in/hr0.0 mm/hr 0.00 in0.0 mm
07:30 AM 45.8°F7.7°C 39.0°F3.9°C 77% Calm Calm 4.0 mph6.4 kmh 29.76 in1007.8 mb 0.00 in0.0 mm 0.00 in/hr0.0 mm/hr 0.00 in0.0 mm
07:40 AM 45.6°F7.6°C 39.5°F4.2°C 79% 4.0 mph S6.4 kmh S 6.0 mph9.7 kmh 29.76 in1007.8 mb 0.00 in0.0 mm 0.00 in/hr0.0 mm/hr 0.00 in0.0 mm
07:50 AM 46.2°F7.9°C 39.7°F4.3°C 78% 3.0 mph SSE4.8 kmh SSE 6.0 mph9.7 kmh 29.76 in1007.8 mb 0.00 in0.0 mm 0.00 in/hr0.0 mm/hr 0.00 in0.0 mm
08:00 AM 46.8°F8.2°C 40.3°F4.6°C 78% 4.0 mph SSE6.4 kmh SSE 6.0 mph9.7 kmh 29.76 in1007.8 mb 0.00 in0.0 mm 0.00 in/hr0.0 mm/hr 0.00 in0.0 mm
08:10 AM 46.8°F8.2°C 40.3°F4.6°C 78% 4.0 mph SSE6.4 kmh SSE 6.0 mph9.7 kmh 29.76 in1007.8 mb 0.00 in0.0 mm 0.00 in/hr0.0 mm/hr 0.00 in0.0 mm
08:20 AM 47.0°F8.3°C 40.8°F4.9°C 79% Calm Calm 6.0 mph9.7 kmh 29.77 in1008.1 mb 0.00 in0.0 mm 0.00 in/hr0.0 mm/hr 0.00 in0.0 mm
08:30 AM 46.8°F8.2°C 40.6°F4.8°C 79% Calm Calm 4.0 mph6.4 kmh 29.76 in1007.8 mb 0.00 in0.0 mm 0.00 in/hr0.0 mm/hr 0.00 in0.0 mm
08:40 AM 47.0°F8.3°C 41.2°F5.1°C 80% Calm Calm 5.0 mph8.0 kmh 29.75 in1007.5 mb 0.00 in0.0 mm 0.00 in/hr0.0 mm/hr 0.00 in0.0 mm
08:50 AM 50.1°F10.1°C 44.5°F6.9°C 81% 12.0 mph SSW19.3 kmh SSW 21.0 mph33.8 kmh 29.75 in1007.5 mb 0.00 in0.0 mm 0.00 in/hr0.0 mm/hr 0.00 in0.0 mm
09:00 AM 52.5°F11.4°C 45.5°F7.5°C 77% 5.0 mph SW8.0 kmh SW 17.0 mph27.4 kmh 29.76 in1007.8 mb 0.00 in0.0 mm 0.00 in/hr0.0 mm/hr 0.00 in0.0 mm
09:10 AM 53.2°F11.8°C 45.8°F7.7°C 76% 7.0 mph SW11.3 kmh SW 15.0 mph24.1 kmh 29.76 in1007.8 mb 0.00 in0.0 mm 0.00 in/hr0.0 mm/hr 0.00 in0.0 mm
09:20 AM 53.2°F11.8°C 46.2°F7.9°C 77% 6.0 mph SW9.7 kmh SW 17.0 mph27.4 kmh 29.76 in1007.8 mb 0.00 in0.0 mm 0.00 in/hr0.0 mm/hr 0.00 in0.0 mm
09:30 AM 53.5°F11.9°C 46.5°F8.1°C 77% 12.0 mph W19.3 kmh W 20.0 mph32.2 kmh 29.76 in1007.8 mb 0.00 in0.0 mm 0.00 in/hr0.0 mm/hr 0.00 in0.0 mm
09:40 AM 53.5°F11.9°C 46.5°F8.1°C 77% 10.0 mph SW16.1 kmh SW 15.0 mph24.1 kmh 29.77 in1008.1 mb 0.00 in0.0 mm 0.00 in/hr0.0 mm/hr 0.00 in0.0 mm
09:50 AM 54.1°F12.3°C 47.1°F8.4°C 77% 11.0 mph SSW17.7 kmh SSW 18.0 mph29.0 kmh 29.77 in1008.1 mb 0.00 in0.0 mm 0.00 in/hr0.0 mm/hr 0.00 in0.0 mm
10:00 AM 54.7°F12.6°C 46.9°F8.3°C 75% 13.0 mph WNW20.9 kmh WNW 21.0 mph33.8 kmh 29.77 in1008.1 mb 0.00 in0.0 mm 0.00 in/hr0.0 mm/hr 0.00 in0.0 mm
10:10 AM 55.3°F12.9°C 47.5°F8.6°C 75% 20.0 mph SW32.2 kmh SW 20.0 mph32.2 kmh 29.78 in1008.5 mb 0.00 in0.0 mm 0.00 in/hr0.0 mm/hr 0.00 in0.0 mm
10:20 AM 54.0°F12.2°C 47.3°F8.5°C 78% 19.0 mph WSW30.6 kmh WSW 19.0 mph30.6 kmh 29.79 in1008.8 mb 0.00 in0.0 mm 0.00 in/hr0.0 mm/hr 0.00 in0.0 mm
10:30 AM 51.9°F11.1°C 45.6°F7.6°C 79% 11.0 mph WSW17.7 kmh WSW 23.0 mph37.0 kmh 29.81 in1009.5 mb 0.00 in0.0 mm 0.00 in/hr0.0 mm/hr 0.00 in0.0 mm
10:40 AM 51.6°F10.9°C 45.3°F7.4°C 79% 12.0 mph WSW19.3 kmh WSW 21.0 mph33.8 kmh 29.82 in1009.8 mb 0.00 in0.0 mm 0.00 in/hr0.0 mm/hr 0.00 in0.0 mm
10:50 AM 49.4°F9.7°C 41.1°F5.1°C 73% 28.0 mph WSW45.1 kmh WSW 40.0 mph64.4 kmh 29.84 in1010.5 mb 0.00 in0.0 mm 0.00 in/hr0.0 mm/hr 0.00 in0.0 mm
11:00 AM 47.0°F8.3°C 39.8°F4.3°C 76% 33.0 mph WSW53.1 kmh WSW 33.0 mph53.1 kmh 29.85 in1010.8 mb 0.00 in0.0 mm 0.00 in/hr0.0 mm/hr 0.00 in0.0 mm
11:10 AM 47.5°F8.6°C 40.0°F4.4°C 75% 14.0 mph WSW22.5 kmh WSW 39.0 mph62.8 kmh 29.86 in1011.2 mb 0.00 in0.0 mm 0.00 in/hr0.0 mm/hr 0.00 in0.0 mm
11:20 AM 46.9°F8.3°C 38.4°F3.6°C 72% 24.0 mph W38.6 kmh W 34.0 mph54.7 kmh 29.87 in1011.5 mb 0.00 in0.0 mm 0.00 in/hr0.0 mm/hr 0.00 in0.0 mm
11:30 AM 45.9°F7.7°C 38.4°F3.6°C 75% 31.0 mph W49.9 kmh W 31.0 mph49.9 kmh 29.87 in1011.5 mb 0.00 in0.0 mm 0.00 in/hr0.0 mm/hr 0.00 in0.0 mm
11:40 AM 45.6°F7.6°C 38.2°F3.4°C 75% 14.0 mph WSW22.5 kmh WSW 24.0 mph38.6 kmh 29.88 in1011.9 mb 0.00 in0.0 mm 0.00 in/hr0.0 mm/hr 0.00 in0.0 mm
11:50 AM 45.4°F7.4°C 37.3°F2.9°C 73% 13.0 mph SW20.9 kmh SW 33.0 mph53.1 kmh 29.88 in1011.9 mb 0.00 in0.0 mm 0.00 in/hr0.0 mm/hr 0.00 in0.0 mm
12:01 PM 44.5°F6.9°C 37.1°F2.8°C 75% 14.0 mph WSW22.5 kmh WSW 26.0 mph41.8 kmh 29.88 in1011.9 mb 0.00 in0.0 mm 0.00 in/hr0.0 mm/hr 0.00 in0.0 mm
12:10 PM 44.1°F6.7°C 36.7°F2.6°C 75% 18.0 mph W29.0 kmh W 30.0 mph48.3 kmh 29.88 in1011.9 mb 0.00 in0.0 mm 0.00 in/hr0.0 mm/hr 0.00 in0.0 mm
12:20 PM 43.5°F6.4°C 36.8°F2.7°C 77% 13.0 mph WSW20.9 kmh WSW 29.0 mph46.7 kmh 29.88 in1011.9 mb 0.00 in0.0 mm 0.00 in/hr0.0 mm/hr 0.00 in0.0 mm
12:30 PM 43.3°F6.3°C 36.9°F2.7°C 78% 20.0 mph WSW32.2 kmh WSW 28.0 mph45.1 kmh 29.88 in1011.9 mb 0.00 in0.0 mm 0.00 in/hr0.0 mm/hr 0.00 in0.0 mm
12:40 PM 42.9°F6.1°C 36.9°F2.7°C 79% 20.0 mph SW32.2 kmh SW 32.0 mph51.5 kmh 29.88 in1011.9 mb 0.00 in0.0 mm 0.00 in/hr0.0 mm/hr 0.00 in0.0 mm
12:50 PM 42.6°F5.9°C 36.2°F2.3°C 78% 19.0 mph W30.6 kmh W 31.0 mph49.9 kmh 29.90 in1012.5 mb 0.00 in0.0 mm 0.00 in/hr0.0 mm/hr 0.00 in0.0 mm
01:00 PM 42.3°F5.7°C 35.6°F2.0°C 77% 20.0 mph WSW32.2 kmh WSW 35.0 mph56.3 kmh 29.91 in1012.9 mb 0.00 in0.0 mm 0.00 in/hr0.0 mm/hr 0.00 in0.0 mm
01:10 PM 41.8°F5.4°C 34.8°F1.6°C 76% 14.0 mph W22.5 kmh W 30.0 mph48.3 kmh 29.92 in1013.2 mb 0.00 in0.0 mm 0.00 in/hr0.0 mm/hr 0.00 in0.0 mm
01:20 PM 41.4°F5.2°C 35.4°F1.9°C 79% 24.0 mph W38.6 kmh W 32.0 mph51.5 kmh 29.92 in1013.2 mb 0.00 in0.0 mm 0.00 in/hr0.0 mm/hr 0.00 in0.0 mm
01:30 PM 41.1°F5.1°C 35.1°F1.7°C 79% 19.0 mph W30.6 kmh W 34.0 mph54.7 kmh 29.93 in1013.5 mb 0.00 in0.0 mm 0.00 in/hr0.0 mm/hr 0.00 in0.0 mm
01:40 PM 41.0°F5.0°C 35.3°F1.8°C 80% 12.0 mph WSW19.3 kmh WSW 26.0 mph41.8 kmh 29.93 in1013.5 mb 0.00 in0.0 mm 0.00 in/hr0.0 mm/hr 0.00 in0.0 mm
01:50 PM 40.9°F4.9°C 35.2°F1.8°C 80% 15.0 mph W24.1 kmh W 30.0 mph48.3 kmh 29.93 in1013.5 mb 0.00 in0.0 mm 0.00 in/hr0.0 mm/hr 0.00 in0.0 mm
02:01 PM 40.7°F4.8°C 35.0°F1.7°C 80% 11.0 mph WSW17.7 kmh WSW 29.0 mph46.7 kmh 29.94 in1013.9 mb 0.00 in0.0 mm 0.00 in/hr0.0 mm/hr 0.00 in0.0 mm
02:10 PM 40.7°F4.8°C 35.3°F1.8°C 81% 8.0 mph WSW12.9 kmh WSW 25.0 mph40.2 kmh 29.95 in1014.2 mb 0.00 in0.0 mm 0.00 in/hr0.0 mm/hr 0.00 in0.0 mm
02:20 PM 40.6°F4.8°C 35.2°F1.8°C 81% 10.0 mph W16.1 kmh W 23.0 mph37.0 kmh 29.95 in1014.2 mb 0.00 in0.0 mm 0.00 in/hr0.0 mm/hr 0.00 in0.0 mm
02:30 PM 40.5°F4.7°C 35.5°F1.9°C 82% 13.0 mph WSW20.9 kmh WSW 28.0 mph45.1 kmh 29.96 in1014.6 mb 0.00 in0.0 mm 0.00 in/hr0.0 mm/hr 0.00 in0.0 mm
02:40 PM 40.6°F4.8°C 35.2°F1.8°C 81% 14.0 mph WSW22.5 kmh WSW 24.0 mph38.6 kmh 29.96 in1014.6 mb 0.00 in0.0 mm 0.00 in/hr0.0 mm/hr 0.00 in0.0 mm
02:50 PM 41.0°F5.0°C 35.3°F1.8°C 80% 6.0 mph WSW9.7 kmh WSW 23.0 mph37.0 kmh 29.97 in1014.9 mb 0.00 in0.0 mm 0.00 in/hr0.0 mm/hr 0.00 in0.0 mm
03:00 PM 41.3°F5.2°C 35.0°F1.7°C 78% 13.0 mph W20.9 kmh W 22.0 mph35.4 kmh 29.97 in1014.9 mb 0.00 in0.0 mm 0.00 in/hr0.0 mm/hr 0.00 in0.0 mm
03:10 PM 41.9°F5.5°C 35.2°F1.8°C 77% 5.0 mph WSW8.0 kmh WSW 21.0 mph33.8 kmh 29.97 in1014.9 mb 0.00 in0.0 mm 0.00 in/hr0.0 mm/hr 0.00 in0.0 mm
03:20 PM 42.6°F5.9°C 35.2°F1.8°C 75% 16.0 mph WSW25.7 kmh WSW 19.0 mph30.6 kmh 29.98 in1015.2 mb 0.00 in0.0 mm 0.00 in/hr0.0 mm/hr 0.00 in0.0 mm
03:30 PM 42.3°F5.7°C 35.0°F1.7°C 75% 11.0 mph WSW17.7 kmh WSW 23.0 mph37.0 kmh 29.98 in1015.2 mb 0.00 in0.0 mm 0.00 in/hr0.0 mm/hr 0.00 in0.0 mm
03:40 PM 42.4°F5.8°C 34.0°F1.1°C 72% 24.0 mph W38.6 kmh W 33.0 mph53.1 kmh 30.00 in1015.9 mb 0.00 in0.0 mm 0.00 in/hr0.0 mm/hr 0.00 in0.0 mm
03:50 PM 41.9°F5.5°C 31.8°F-0.1°C 67% 25.0 mph W40.2 kmh W 37.0 mph59.5 kmh 30.01 in1016.3 mb 0.00 in0.0 mm 0.00 in/hr0.0 mm/hr 0.00 in0.0 mm
04:02 PM 41.9°F5.5°C 32.5°F0.3°C 69% 19.0 mph W30.6 kmh W 22.0 mph35.4 kmh 30.02 in1016.6 mb 0.00 in0.0 mm 0.00 in/hr0.0 mm/hr 0.00 in0.0 mm
04:10 PM 41.7°F5.4°C 31.2°F-0.4°C 66% 21.0 mph WSW33.8 kmh WSW 26.0 mph41.8 kmh 30.03 in1016.9 mb 0.00 in0.0 mm 0.00 in/hr0.0 mm/hr 0.00 in0.0 mm
04:20 PM 41.2°F5.1°C 30.7°F-0.7°C 66% 6.0 mph WSW9.7 kmh WSW 28.0 mph45.1 kmh 30.03 in1016.9 mb 0.00 in0.0 mm 0.00 in/hr0.0 mm/hr 0.00 in0.0 mm
04:30 PM 41.2°F5.1°C 30.0°F-1.1°C 64% 13.0 mph WSW20.9 kmh WSW 26.0 mph41.8 kmh 30.03 in1016.9 mb 0.00 in0.0 mm 0.00 in/hr0.0 mm/hr 0.00 in0.0 mm
04:40 PM 40.9°F4.9°C 29.7°F-1.3°C 64% 12.0 mph WSW19.3 kmh WSW 28.0 mph45.1 kmh 30.04 in1017.3 mb 0.00 in0.0 mm 0.00 in/hr0.0 mm/hr 0.00 in0.0 mm
04:50 PM 40.5°F4.7°C 29.3°F-1.5°C 64% 13.0 mph WSW20.9 kmh WSW 18.0 mph29.0 kmh 30.04 in1017.3 mb 0.00 in0.0 mm 0.00 in/hr0.0 mm/hr 0.00 in0.0 mm
05:00 PM 40.1°F4.5°C 28.1°F-2.2°C 62% 18.0 mph W29.0 kmh W 24.0 mph38.6 kmh 30.05 in1017.6 mb 0.00 in0.0 mm 0.00 in/hr0.0 mm/hr 0.00 in0.0 mm
05:10 PM 40.1°F4.5°C 27.8°F-2.3°C 61% 9.0 mph WSW14.5 kmh WSW 23.0 mph37.0 kmh 30.05 in1017.6 mb 0.00 in0.0 mm 0.00 in/hr0.0 mm/hr 0.00 in0.0 mm
05:20 PM 40.1°F4.5°C 25.7°F-3.5°C 56% 21.0 mph W33.8 kmh W 27.0 mph43.5 kmh 30.05 in1017.6 mb 0.00 in0.0 mm 0.00 in/hr0.0 mm/hr 0.00 in0.0 mm
05:30 PM 39.9°F4.4°C 25.5°F-3.6°C 56% 19.0 mph W30.6 kmh W 29.0 mph46.7 kmh 30.06 in1017.9 mb 0.00 in0.0 mm 0.00 in/hr0.0 mm/hr 0.00 in0.0 mm
05:40 PM 39.8°F4.3°C 25.8°F-3.4°C 57% 6.0 mph WSW9.7 kmh WSW 27.0 mph43.5 kmh 30.06 in1017.9 mb 0.00 in0.0 mm 0.00 in/hr0.0 mm/hr 0.00 in0.0 mm
05:50 PM 39.5°F4.2°C 26.0°F-3.3°C 58% 11.0 mph WSW17.7 kmh WSW 19.0 mph30.6 kmh 30.07 in1018.3 mb 0.00 in0.0 mm 0.00 in/hr0.0 mm/hr 0.00 in0.0 mm
06:01 PM 39.5°F4.2°C 26.0°F-3.3°C 58% 25.0 mph WSW40.2 kmh WSW 27.0 mph43.5 kmh 30.07 in1018.3 mb 0.00 in0.0 mm 0.00 in/hr0.0 mm/hr 0.00 in0.0 mm
06:10 PM 39.6°F4.2°C 22.5°F-5.3°C 50% 19.0 mph W30.6 kmh W 32.0 mph51.5 kmh 30.08 in1018.6 mb 0.00 in0.0 mm 0.00 in/hr0.0 mm/hr 0.00 in0.0 mm
06:20 PM 39.3°F4.1°C 22.7°F-5.2°C 51% 13.0 mph WSW20.9 kmh WSW 28.0 mph45.1 kmh 30.09 in1019.0 mb 0.00 in0.0 mm 0.00 in/hr0.0 mm/hr 0.00 in0.0 mm
06:30 PM 38.9°F3.8°C 24.1°F-4.4°C 55% 10.0 mph NW16.1 kmh NW 27.0 mph43.5 kmh 30.10 in1019.3 mb 0.00 in0.0 mm 0.00 in/hr0.0 mm/hr 0.00 in0.0 mm
06:40 PM 37.6°F3.1°C 25.0°F-3.9°C 60% 14.0 mph WNW22.5 kmh WNW 26.0 mph41.8 kmh 30.11 in1019.6 mb 0.00 in0.0 mm 0.00 in/hr0.0 mm/hr 0.00 in0.0 mm
06:50 PM 37.1°F2.8°C 25.7°F-3.5°C 63% 10.0 mph W16.1 kmh W 18.0 mph29.0 kmh 30.12 in1020.0 mb 0.00 in0.0 mm 0.00 in/hr0.0 mm/hr 0.00 in0.0 mm
07:00 PM 36.6°F2.6°C 25.2°F-3.8°C 63% 11.0 mph WNW17.7 kmh WNW 24.0 mph38.6 kmh 30.13 in1020.3 mb 0.00 in0.0 mm 0.00 in/hr0.0 mm/hr 0.00 in0.0 mm
07:10 PM 36.6°F2.6°C 23.6°F-4.7°C 59% 9.0 mph W14.5 kmh W 28.0 mph45.1 kmh 30.13 in1020.3 mb 0.00 in0.0 mm 0.00 in/hr0.0 mm/hr 0.00 in0.0 mm
07:20 PM 36.4°F2.4°C 23.1°F-4.9°C 58% 17.0 mph W27.4 kmh W 20.0 mph32.2 kmh 30.14 in1020.7 mb 0.00 in0.0 mm 0.00 in/hr0.0 mm/hr 0.00 in0.0 mm
07:30 PM 36.2°F2.3°C 22.0°F-5.6°C 56% 10.0 mph W16.1 kmh W 16.0 mph25.7 kmh 30.15 in1021.0 mb 0.00 in0.0 mm 0.00 in/hr0.0 mm/hr 0.00 in0.0 mm
07:40 PM 36.0°F2.2°C 22.3°F-5.4°C 57% 16.0 mph W25.7 kmh W 17.0 mph27.4 kmh 30.15 in1021.0 mb 0.00 in0.0 mm 0.00 in/hr0.0 mm/hr 0.00 in0.0 mm
07:50 PM 35.5°F1.9°C 22.6°F-5.2°C 59% 12.0 mph W19.3 kmh W 28.0 mph45.1 kmh 30.15 in1021.0 mb 0.00 in0.0 mm 0.00 in/hr0.0 mm/hr 0.00 in0.0 mm
08:00 PM 35.0°F1.7°C 23.3°F-4.8°C 62% 10.0 mph WNW16.1 kmh WNW 21.0 mph33.8 kmh 30.16 in1021.3 mb 0.00 in0.0 mm 0.00 in/hr0.0 mm/hr 0.00 in0.0 mm
08:10 PM 34.7°F1.5°C 23.8°F-4.6°C 64% 11.0 mph WNW17.7 kmh WNW 16.0 mph25.7 kmh 30.16 in1021.3 mb 0.00 in0.0 mm 0.00 in/hr0.0 mm/hr 0.00 in0.0 mm
08:20 PM 34.6°F1.4°C 24.1°F-4.4°C 65% 7.0 mph W11.3 kmh W 24.0 mph38.6 kmh 30.17 in1021.7 mb 0.00 in0.0 mm 0.00 in/hr0.0 mm/hr 0.00 in0.0 mm
08:30 PM 34.3°F1.3°C 24.5°F-4.2°C 67% 11.0 mph W17.7 kmh W 23.0 mph37.0 kmh 30.17 in1021.7 mb 0.00 in0.0 mm 0.00 in/hr0.0 mm/hr 0.00 in0.0 mm
08:40 PM 33.5°F0.8°C 24.4°F-4.2°C 69% 22.0 mph W35.4 kmh W 24.0 mph38.6 kmh 30.16 in1021.3 mb 0.00 in0.0 mm 0.00 in/hr0.0 mm/hr 0.00 in0.0 mm
08:50 PM 33.8°F1.0°C 24.4°F-4.2°C 68% 13.0 mph SW20.9 kmh SW 31.0 mph49.9 kmh 30.16 in1021.3 mb 0.00 in0.0 mm 0.00 in/hr0.0 mm/hr 0.00 in0.0 mm
09:00 PM 33.2°F0.7°C 24.2°F-4.3°C 69% 12.0 mph WSW19.3 kmh WSW 20.0 mph32.2 kmh 30.16 in1021.3 mb 0.00 in0.0 mm 0.00 in/hr0.0 mm/hr 0.00 in0.0 mm
09:10 PM 32.9°F0.5°C 24.5°F-4.2°C 71% 15.0 mph W24.1 kmh W 20.0 mph32.2 kmh 30.16 in1021.3 mb 0.00 in0.0 mm 0.00 in/hr0.0 mm/hr 0.00 in0.0 mm
09:20 PM 33.2°F0.7°C 23.8°F-4.6°C 68% 11.0 mph W17.7 kmh W 28.0 mph45.1 kmh 30.16 in1021.3 mb 0.00 in0.0 mm 0.00 in/hr0.0 mm/hr 0.00 in0.0 mm
09:30 PM 33.4°F0.8°C 24.3°F-4.3°C 69% 13.0 mph WSW20.9 kmh WSW 24.0 mph38.6 kmh 30.17 in1021.7 mb 0.00 in0.0 mm 0.00 in/hr0.0 mm/hr 0.00 in0.0 mm
09:40 PM 32.6°F0.3°C 25.3°F-3.7°C 74% 13.0 mph W20.9 kmh W 21.0 mph33.8 kmh 30.17 in1021.7 mb 0.00 in0.0 mm 0.00 in/hr0.0 mm/hr 0.00 in0.0 mm
09:50 PM 32.0°F0.0°C 25.9°F-3.4°C 78% 12.0 mph WNW19.3 kmh WNW 22.0 mph35.4 kmh 30.16 in1021.3 mb 0.00 in0.0 mm 0.00 in/hr0.0 mm/hr 0.00 in0.0 mm
10:01 PM 32.0°F0.0°C 25.9°F-3.4°C 78% 10.0 mph WNW16.1 kmh WNW 21.0 mph33.8 kmh 30.16 in1021.3 mb 0.00 in0.0 mm 0.00 in/hr0.0 mm/hr 0.00 in0.0 mm
10:10 PM 32.1°F0.1°C 25.7°F-3.5°C 77% 4.0 mph WSW6.4 kmh WSW 13.0 mph20.9 kmh 30.16 in1021.3 mb 0.00 in0.0 mm 0.00 in/hr0.0 mm/hr 0.00 in0.0 mm
10:20 PM 32.7°F0.4°C 24.4°F-4.2°C 71% 6.0 mph WSW9.7 kmh WSW 22.0 mph35.4 kmh 30.16 in1021.3 mb 0.00 in0.0 mm 0.00 in/hr0.0 mm/hr 0.00 in0.0 mm
10:30 PM 32.8°F0.4°C 23.8°F-4.6°C 69% 12.0 mph WSW19.3 kmh WSW 21.0 mph33.8 kmh 30.16 in1021.3 mb 0.00 in0.0 mm 0.00 in/hr0.0 mm/hr 0.00 in0.0 mm
10:40 PM 32.8°F0.4°C 23.4°F-4.8°C 68% 12.0 mph W19.3 kmh W 27.0 mph43.5 kmh 30.15 in1021.0 mb 0.00 in0.0 mm 0.00 in/hr0.0 mm/hr 0.00 in0.0 mm
10:50 PM 32.8°F0.4°C 22.7°F-5.2°C 66% 14.0 mph W22.5 kmh W 20.0 mph32.2 kmh 30.15 in1021.0 mb 0.00 in0.0 mm 0.00 in/hr0.0 mm/hr 0.00 in0.0 mm
11:00 PM 32.4°F0.2°C 23.0°F-5.0°C 68% 12.0 mph W19.3 kmh W 17.0 mph27.4 kmh 30.15 in1021.0 mb 0.00 in0.0 mm 0.00 in/hr0.0 mm/hr 0.00 in0.0 mm
11:10 PM 32.4°F0.2°C 23.4°F-4.8°C 69% 9.0 mph WSW14.5 kmh WSW 14.0 mph22.5 kmh 30.15 in1021.0 mb 0.00 in0.0 mm 0.00 in/hr0.0 mm/hr 0.00 in0.0 mm
11:20 PM 32.6°F0.3°C 23.6°F-4.7°C 69% 5.0 mph WSW8.0 kmh WSW 13.0 mph20.9 kmh 30.15 in1021.0 mb 0.00 in0.0 mm 0.00 in/hr0.0 mm/hr 0.00 in0.0 mm
11:30 PM 32.6°F0.3°C 23.9°F-4.5°C 70% 3.0 mph WSW4.8 kmh WSW 12.0 mph19.3 kmh 30.15 in1021.0 mb 0.00 in0.0 mm 0.00 in/hr0.0 mm/hr 0.00 in0.0 mm
11:40 PM 32.4°F0.2°C 24.7°F-4.1°C 73% 7.0 mph NW11.3 kmh NW 11.0 mph17.7 kmh 30.15 in1021.0 mb 0.00 in0.0 mm 0.00 in/hr0.0 mm/hr 0.00 in0.0 mm
11:50 PM 30.5°F-0.8°C 26.0°F-3.3°C 83% 12.0 mph WSW19.3 kmh WSW 20.0 mph32.2 kmh 30.15 in1021.0 mb 0.00 in0.0 mm 0.00 in/hr0.0 mm/hr 0.00 in0.0 mm